Latest Coastal Weather Observations for Swanbourne

IDW60701

Issued at 7:52 am WST Sunday 7 February 2016 (issued every 10 minutes, with the page automatically refreshed every 10 minutes)

About coastal observations | Map of coastal stations | Coastal observations for WA | Marine services | Other Formats
Station Details ID: 009215 Name: SWANBOURNE Lat: -31.96 Lon: 115.76 Height: 40.96 m
Data from the previous 72 hours. | See also: Recent months at Swanbourne
Date/Time
WST
Temp

°C
Wind Pressure Rain
since 9am
mm
Weather Cloud Vis
km
Sea
Height
m
Swell
Dir
 
Speed
knots
Gust
knots
hPa Trend Height
m
Period
s
Dir
07/07:30am 22.8 E 16 24 - - 0.0 - - - - - - -
07/07:00am 21.9 E 16 24 - - 0.0 - - - - - - -
07/06:30am 21.4 E 16 24 - - 0.0 - - - - - - -
07/06:00am 20.6 ENE 13 21 - - 0.0 - - - - - - -
07/05:30am 20.7 ENE 11 17 - - 0.0 - - - - - - -
07/05:00am 21.1 E 10 15 - - 0.0 - - - - - - -
07/04:30am 21.5 E 12 17 - - 0.0 - - - - - - -
07/04:00am 21.8 E 10 14 - - 0.0 - - - - - - -
07/03:30am 22.1 E 8 10 - - 0.0 - - - - - - -
07/03:00am 22.8 E 8 11 - - 0.0 - - - - - - -
07/02:30am 23.3 E 8 14 - - 0.0 - - - - - - -
07/02:00am 23.9 E 9 14 - - 0.0 - - - - - - -
07/01:30am 24.5 E 9 16 - - 0.0 - - - - - - -
07/01:00am 24.0 ESE 8 14 - - 0.0 - - - - - - -
07/12:30am 22.3 ESE 6 8 - - 0.0 - - - - - - -
07/12:00am 22.0 ESE 5 7 - - 0.0 - - - - - - -
 
Date/Time
WST
Temp

°C
Wind Pressure Rain
since 9am
mm
Weather Cloud Vis
km
Sea
Height
m
Swell
Dir
 
Speed
knots
Gust
knots
hPa Trend Height
m
Period
s
Dir
06/11:30pm 22.1 SSE 4 6 - - 0.0 - - - - - - -
06/11:00pm 22.1 SSW 3 5 - - 0.0 - - - - - - -
06/10:30pm 22.2 S 3 3 - - 0.0 - - - - - - -
06/10:00pm 22.4 S 4 5 - - 0.0 - - - - - - -
06/09:30pm 22.8 S 4 6 - - 0.0 - - - - - - -
06/09:00pm 23.0 S 6 9 - - 0.0 - - - - - - -
06/08:30pm 23.2 S 8 13 - - 0.0 - - - - - - -
06/08:00pm 23.2 S 8 13 - - 0.0 - - - - - - -
06/07:30pm 23.3 SSW 10 15 - - 0.0 - - - - - - -
06/07:00pm 23.9 S 9 15 - - 0.0 - - - - - - -
06/06:30pm 24.1 S 11 17 - - 0.0 - - - - - - -
06/06:00pm 24.1 SSW 12 16 - - 0.0 - - - - - - -
06/05:30pm 24.4 SSW 13 19 - - 0.0 - - - - - - -
06/05:00pm 24.9 SSW 12 17 - - 0.0 - - - - - - -
06/04:30pm 25.3 SSW 13 19 - - 0.0 - - - - - - -
06/04:00pm 26.1 SSW 10 16 - - 0.0 - - - - - - -
06/03:30pm 25.9 SW 12 17 - - 0.0 - - - - - - -
06/03:00pm 26.3 SSW 11 18 - - 0.0 - - - - - - -
06/02:30pm 26.4 SSW 10 17 - - 0.0 - - - - - - -
06/02:00pm 25.5 SW 13 18 - - 0.0 - - - - - - -
06/01:30pm 25.6 SW 12 18 - - 0.0 - - - - - - -
06/01:00pm 25.7 SSW 11 17 - - 0.0 - - - - - - -
06/12:30pm 25.5 SW 14 19 - - 0.0 - - - - - - -
06/12:00pm 25.5 SW 9 13 - - 0.0 - - - - - - -
06/11:30am 25.3 SW 11 14 - - 0.0 - - - - - - -
06/11:00am 26.3 SSW 6 10 - - 0.0 - - - - - - -
06/10:30am 26.2 SW 8 11 - - 0.0 - - - - - - -
06/10:00am 25.6 SSW 9 13 - - 0.0 - - - - - - -
06/09:30am 25.0 SSW 10 16 - - 0.0 - - - - - - -
06/09:00am 26.9 NNW 1 3 - - 0.0 - - - - - - -
06/08:30am 25.0 ESE 3 5 - - 0.0 - - - - - - -
06/08:00am 24.1 ESE 4 7 - - 0.0 - - - - - - -
06/07:30am 23.1 SE 5 7 - - 0.0 - - - - - - -
06/07:00am 22.1 SSE 4 8 - - 0.0 - - - - - - -
06/06:30am 20.8 SSE 5 7 - - 0.0 - - - - - - -
06/06:00am 20.1 SE 4 6 - - 0.0 - - - - - - -
06/05:30am 20.5 SSE 4 5 - - 0.0 - - - - - - -
06/05:00am 20.9 SSE 4 6 - - 0.0 - - - - - - -
06/04:30am 21.4 SSE 5 7 - - 0.0 - - - - - - -
06/04:00am 21.5 S 5 6 - - 0.0 - - - - - - -
06/03:30am 21.7 S 5 7 - - 0.0 - - - - - - -
06/03:00am 22.0 S 6 10 - - 0.0 - - - - - - -
06/02:30am 22.4 SSW 4 7 - - 0.0 - - - - - - -
06/02:00am 23.2 SE 5 7 - - 0.0 - - - - - - -
06/01:30am 23.1 SE 5 7 - - 0.0 - - - - - - -
06/01:00am 23.1 SSE 5 6 - - 0.0 - - - - - - -
06/12:30am 23.0 SSE 4 6 - - 0.0 - - - - - - -
06/12:00am 23.2 SSE 4 6 - - 0.0 - - - - - - -
 
Date/Time
WST
Temp

°C
Wind Pressure Rain
since 9am
mm
Weather Cloud Vis
km
Sea
Height
m
Swell
Dir
 
Speed
knots
Gust
knots
hPa Trend Height
m
Period
s
Dir
05/11:30pm 23.3 SSE 5 9 - - 0.0 - - - - - - -
05/11:00pm 23.0 SSE 5 7 - - 0.0 - - - - - - -
05/10:30pm 23.0 SSE 5 9 - - 0.0 - - - - - - -
05/10:00pm 22.9 SSW 5 7 - - 0.0 - - - - - - -
05/09:30pm 23.6 S 5 9 - - 0.0 - - - - - - -
05/09:00pm 23.8 S 5 8 - - 0.0 - - - - - - -
05/08:30pm 25.1 S 7 11 - - 0.0 - - - - - - -
05/08:00pm 23.6 SSW 5 7 - - 0.0 - - - - - - -
05/07:30pm 23.6 S 8 13 - - 0.0 - - - - - - -
05/07:00pm 24.0 SSW 11 15 - - 0.0 - - - - - - -
05/06:30pm 24.6 SSW 10 15 - - 0.0 - - - - - - -
05/06:00pm 25.2 SSW 11 16 - - 0.0 - - - - - - -
05/05:30pm 25.8 SSW 10 15 - - 0.0 - - - - - - -
05/05:00pm 25.7 SSW 11 17 - - 0.0 - - - - - - -
05/04:30pm 26.4 SSW 13 18 - - 0.0 - - - - - - -
05/04:00pm 26.7 SSW 11 16 - - 0.0 - - - - - - -
05/03:30pm 27.6 SSW 10 15 - - 0.0 - - - - - - -
05/03:00pm 27.9 SSW 10 15 - - 0.0 - - - - - - -
05/02:30pm 27.7 SSW 12 17 - - 0.0 - - - - - - -
05/02:00pm 26.8 SW 13 22 - - 0.0 - - - - - - -
05/01:30pm 28.7 WSW 14 22 - - 0.0 - - - - - - -
05/01:00pm 31.5 WSW 9 12 - - 0.0 - - - - - - -
05/12:30pm 32.0 WSW 7 9 - - 0.0 - - - - - - -
05/12:00pm 33.3 W 6 9 - - 0.0 - - - - - - -
05/11:30am 33.0 WNW 7 8 - - 0.0 - - - - - - -
05/11:00am 32.3 WNW 5 8 - - 0.0 - - - - - - -
05/10:30am 32.6 NNE 6 11 - - 0.0 - - - - - - -
05/10:00am 32.4 NE 6 10 - - 0.0 - - - - - - -
05/09:30am 31.5 ENE 5 11 - - 0.0 - - - - - - -
05/09:00am 29.7 ENE 5 9 - - 0.0 - - - - - - -
05/08:30am 28.3 ENE 5 9 - - 0.0 - - - - - - -
05/08:00am 26.6 ENE 5 8 - - 0.0 - - - - - - -
05/07:30am 24.9 ENE 5 8 - - 0.0 - - - - - - -
05/07:00am 23.1 ENE 4 5 - - 0.0 - - - - - - -
05/06:30am 20.8 ENE 4 5 - - 0.0 - - - - - - -
05/06:00am 19.2 E 7 9 - - 0.0 - - - - - - -
05/05:30am 18.9 E 8 9 - - 0.0 - - - - - - -
05/05:00am 19.1 ENE 7 9 - - 0.0 - - - - - - -
05/04:30am 18.9 ENE 7 8 - - 0.0 - - - - - - -
05/04:00am 19.6 ENE 7 8 - - 0.0 - - - - - - -
05/03:30am 19.8 ENE 7 9 - - 0.0 - - - - - - -
05/03:00am 19.7 E 8 9 - - 0.0 - - - - - - -
05/02:30am 20.8 E 7 8 - - 0.0 - - - - - - -
05/02:00am 21.2 ESE 6 8 - - 0.0 - - - - - - -
05/01:30am 21.1 SE 5 6 - - 0.0 - - - - - - -
05/01:00am 21.6 SSE 4 4 - - 0.0 - - - - - - -
05/12:30am 22.0 SE 4 5 - - 0.0 - - - - - - -
05/12:00am 22.8 SE 4 5 - - 0.0 - - - - - - -
 
Date/Time
WST
Temp

°C
Wind Pressure Rain
since 9am
mm
Weather Cloud Vis
km
Sea
Height
m
Swell
Dir
 
Speed
knots
Gust
knots
hPa Trend Height
m
Period
s
Dir
04/11:30pm 23.3 SE 4 6 - - 0.0 - - - - - - -
04/11:00pm 24.0 SE 5 8 - - 0.0 - - - - - - -
04/10:30pm 24.5 SSE 6 8 - - 0.0 - - - - - - -
04/10:00pm 24.8 SSE 6 10 - - 0.0 - - - - - - -
04/09:30pm 24.9 SSE 7 11 - - 0.0 - - - - - - -
04/09:00pm 25.2 SSE 7 10 - - 0.0 - - - - - - -
04/08:30pm 25.0 SSE 6 9 - - 0.0 - - - - - - -
04/08:00pm 25.4 S 8 15 - - 0.0 - - - - - - -
04/07:30pm 25.5 S 8 13 - - 0.0 - - - - - - -
04/07:00pm 26.0 S 9 14 - - 0.0 - - - - - - -
04/06:30pm 26.3 S 10 16 - - 0.0 - - - - - - -
04/06:00pm 27.2 S 11 17 - - 0.0 - - - - - - -
04/05:30pm 27.3 S 14 21 - - 0.0 - - - - - - -
04/05:00pm 27.9 SSW 15 21 - - 0.0 - - - - - - -
04/04:30pm 28.0 SSW 12 19 - - 0.0 - - - - - - -
04/04:00pm 27.6 SSW 10 17 - - 0.0 - - - - - - -
04/03:30pm 28.0 SSW 11 16 - - 0.0 - - - - - - -
04/03:00pm 29.4 SW 12 16 - - 0.0 - - - - - - -
04/02:30pm 29.8 SW 10 15 - - 0.0 - - - - - - -
04/02:00pm 31.9 W 7 11 - - 0.0 - - - - - - -
04/01:30pm 32.8 E 4 11 - - 0.0 - - - - - - -
04/01:00pm 32.4 ENE 5 11 - - 0.0 - - - - - - -
04/12:30pm 32.2 ENE 7 14 - - 0.0 - - - - - - -
04/12:00pm 31.7 E 7 13 - - 0.0 - - - - - - -
04/11:30am 30.9 NE 7 11 - - 0.0 - - - - - - -
04/11:00am 29.9 ENE 8 14 - - 0.0 - - - - - - -
04/10:30am 29.4 ENE 7 12 - - 0.0 - - - - - - -
04/10:00am 28.4 ENE 8 13 - - 0.0 - - - - - - -
04/09:30am 26.6 ENE 12 16 - - 0.0 - - - - - - -
04/09:00am 25.6 ENE 11 17 - - 0.0 - - - - - - -
04/08:30am 23.9 ENE 13 19 - - 0.0 - - - - - - -
04/08:00am 22.7 E 10 18 - - 0.0 - - - - - - -

Other Formats:

Comma delimited format used in spreadsheet applications
http://www.bom.gov.au/fwo/IDW60701/IDW60701.94614.axf

JavaScript Object Notation format (JSON) in row-major order
http://www.bom.gov.au/fwo/IDW60701/IDW60701.94614.json